sensor_id;sensor_type;location;lat;lon;timestamp;pressure;altitude;pressure_sealevel;temperature;humidity
44027;BME280;29696;55.698;37.460;2022-12-07T00:03:53;100681.56;;;-8.28;52.06
44027;BME280;29696;55.698;37.460;2022-12-07T00:06:19;100685.81;;;-8.28;52.29
44027;BME280;29696;55.698;37.460;2022-12-07T00:08:46;100685.81;;;-8.30;52.15
44027;BME280;29696;55.698;37.460;2022-12-07T00:11:13;100684.94;;;-8.32;51.47
44027;BME280;29696;55.698;37.460;2022-12-07T00:13:40;100686.66;;;-8.31;52.04
44027;BME280;29696;55.698;37.460;2022-12-07T00:16:10;100668.69;;;-8.34;51.83
44027;BME280;29696;55.698;37.460;2022-12-07T00:18:37;100686.66;;;-8.34;52.18
44027;BME280;29696;55.698;37.460;2022-12-07T00:21:05;100684.91;;;-8.35;51.95
44027;BME280;29696;55.698;37.460;2022-12-07T00:23:31;100687.47;;;-8.36;52.12
44027;BME280;29696;55.698;37.460;2022-12-07T00:26:07;100684.06;;;-8.37;52.27
44027;BME280;29696;55.698;37.460;2022-12-07T00:28:34;100691.75;;;-8.37;52.70
44027;BME280;29696;55.698;37.460;2022-12-07T00:31:01;100690.03;;;-8.41;52.10
44027;BME280;29696;55.698;37.460;2022-12-07T00:33:27;100680.63;;;-8.43;52.09
44027;BME280;29696;55.698;37.460;2022-12-07T00:35:57;100689.16;;;-8.44;52.09
44027;BME280;29696;55.698;37.460;2022-12-07T00:38:23;100684.88;;;-8.47;52.03
44027;BME280;29696;55.698;37.460;2022-12-07T00:40:59;100688.28;;;-8.46;52.36
44027;BME280;29696;55.698;37.460;2022-12-07T00:43:25;100691.69;;;-8.47;52.82
44027;BME280;29696;55.698;37.460;2022-12-07T00:45:51;100695.94;;;-8.50;52.72
44027;BME280;29696;55.698;37.460;2022-12-07T00:48:17;100694.25;;;-8.51;52.73
44027;BME280;29696;55.698;37.460;2022-12-07T00:50:44;100689.06;;;-8.57;52.48
44027;BME280;29696;55.698;37.460;2022-12-07T00:53:10;100682.25;;;-8.58;52.51
44027;BME280;29696;55.698;37.460;2022-12-07T00:55:36;100674.53;;;-8.59;52.92
44027;BME280;29696;55.698;37.460;2022-12-07T00:58:02;100680.47;;;-8.62;52.95
44027;BME280;29696;55.698;37.460;2022-12-07T01:00:28;100695.00;;;-8.64;52.69
44027;BME280;29696;55.698;37.460;2022-12-07T01:02:54;100683.88;;;-8.66;52.77
44027;BME280;29696;55.698;37.460;2022-12-07T01:05:20;100681.34;;;-8.63;52.77
44027;BME280;29696;55.698;37.460;2022-12-07T01:07:46;100682.19;;;-8.67;52.87
44027;BME280;29696;55.698;37.460;2022-12-07T01:10:13;100677.03;;;-8.70;52.79
44027;BME280;29696;55.698;37.460;2022-12-07T01:12:39;100680.41;;;-8.71;52.80
44027;BME280;29696;55.698;37.460;2022-12-07T01:15:05;100684.69;;;-8.71;53.22
44027;BME280;29696;55.698;37.460;2022-12-07T01:17:31;100680.41;;;-8.71;53.10
44027;BME280;29696;55.698;37.460;2022-12-07T01:19:57;100688.97;;;-8.69;53.28
44027;BME280;29696;55.698;37.460;2022-12-07T01:22:23;100678.75;;;-8.69;53.09
44027;BME280;29696;55.698;37.460;2022-12-07T01:24:49;100681.28;;;-8.70;52.85
44027;BME280;29696;55.698;37.460;2022-12-07T01:27:15;100675.28;;;-8.71;53.10
44027;BME280;29696;55.698;37.460;2022-12-07T01:29:41;100674.41;;;-8.75;53.06
44027;BME280;29696;55.698;37.460;2022-12-07T01:32:07;100681.25;;;-8.75;53.18
44027;BME280;29696;55.698;37.460;2022-12-07T01:34:34;100670.16;;;-8.76;53.33
44027;BME280;29696;55.698;37.460;2022-12-07T01:37:00;100676.97;;;-8.78;53.16
44027;BME280;29696;55.698;37.460;2022-12-07T01:39:26;100675.25;;;-8.77;53.16
44027;BME280;29696;55.698;37.460;2022-12-07T01:41:52;100667.56;;;-8.79;52.88
44027;BME280;29696;55.698;37.460;2022-12-07T01:44:25;100662.41;;;-8.80;53.11
44027;BME280;29696;55.698;37.460;2022-12-07T01:46:55;100655.59;;;-8.80;53.13
44027;BME280;29696;55.698;37.460;2022-12-07T01:49:31;100662.44;;;-8.79;53.32
44027;BME280;29696;55.698;37.460;2022-12-07T01:52:08;100653.03;;;-8.81;53.06
44027;BME280;29696;55.698;37.460;2022-12-07T01:54:39;100648.72;;;-8.84;52.80
44027;BME280;29696;55.698;37.460;2022-12-07T01:57:05;100657.28;;;-8.80;53.09
44027;BME280;29696;55.698;37.460;2022-12-07T01:59:32;100662.41;;;-8.80;52.99
44027;BME280;29696;55.698;37.460;2022-12-07T02:01:58;100653.91;;;-8.79;52.82
44027;BME280;29696;55.698;37.460;2022-12-07T02:04:24;100653.03;;;-8.81;52.76
44027;BME280;29696;55.698;37.460;2022-12-07T02:06:50;100647.91;;;-8.81;52.95
44027;BME280;29696;55.698;37.460;2022-12-07T02:09:17;100643.63;;;-8.81;53.11
44027;BME280;29696;55.698;37.460;2022-12-07T02:11:43;100636.81;;;-8.82;53.10
44027;BME280;29696;55.698;37.460;2022-12-07T02:14:09;100640.22;;;-8.80;53.17
44027;BME280;29696;55.698;37.460;2022-12-07T02:19:35;100647.91;;;-8.80;53.42
44027;BME280;29696;55.698;37.460;2022-12-07T02:24:54;100635.97;;;-8.78;53.16
44027;BME280;29696;55.698;37.460;2022-12-07T02:30:30;100648.81;;;-8.75;52.90
44027;BME280;29696;55.698;37.460;2022-12-07T02:33:03;100635.16;;;-8.70;53.17
44027;BME280;29696;55.698;37.460;2022-12-07T02:35:33;100646.22;;;-8.75;52.93
44027;BME280;29696;55.698;37.460;2022-12-07T02:38:07;100637.66;;;-8.77;52.92
44027;BME280;29696;55.698;37.460;2022-12-07T02:40:38;100633.38;;;-8.81;52.86
44027;BME280;29696;55.698;37.460;2022-12-07T02:43:11;100637.66;;;-8.81;52.88
44027;BME280;29696;55.698;37.460;2022-12-07T02:45:40;100633.38;;;-8.81;52.97
44027;BME280;29696;55.698;37.460;2022-12-07T02:48:08;100634.25;;;-8.79;53.45
44027;BME280;29696;55.698;37.460;2022-12-07T02:50:35;100626.56;;;-8.82;53.35
44027;BME280;29696;55.698;37.460;2022-12-07T02:53:01;100624.00;;;-8.79;53.31
44027;BME280;29696;55.698;37.460;2022-12-07T02:55:33;100632.56;;;-8.75;53.41
44027;BME280;29696;55.698;37.460;2022-12-07T03:00:54;100631.72;;;-8.74;52.97
44027;BME280;29696;55.698;37.460;2022-12-07T03:03:26;100626.59;;;-8.76;52.97
44027;BME280;29696;55.698;37.460;2022-12-07T03:09:03;100635.13;;;-8.75;52.99
44027;BME280;29696;55.698;37.460;2022-12-07T03:11:42;100628.31;;;-8.76;52.92
44027;BME280;29696;55.698;37.460;2022-12-07T03:14:15;100630.88;;;-8.76;52.86
44027;BME280;29696;55.698;37.460;2022-12-07T03:16:44;100641.97;;;-8.76;53.33
44027;BME280;29696;55.698;37.460;2022-12-07T03:19:15;100636.81;;;-8.77;53.53
44027;BME280;29696;55.698;37.460;2022-12-07T03:22:00;100635.97;;;-8.79;53.40
44027;BME280;29696;55.698;37.460;2022-12-07T03:24:30;100629.97;;;-8.81;53.36
44027;BME280;29696;55.698;37.460;2022-12-07T03:26:59;100624.84;;;-8.80;53.80
44027;BME280;29696;55.698;37.460;2022-12-07T03:29:29;100627.41;;;-8.81;53.78
44027;BME280;29696;55.698;37.460;2022-12-07T03:31:58;100620.59;;;-8.82;53.97
44027;BME280;29696;55.698;37.460;2022-12-07T03:37:28;100613.72;;;-8.88;53.82
44027;BME280;29696;55.698;37.460;2022-12-07T03:40:03;100617.94;;;-8.88;53.58
44027;BME280;29696;55.698;37.460;2022-12-07T03:42:31;100630.81;;;-8.85;53.88
44027;BME280;29696;55.698;37.460;2022-12-07T03:44:58;100619.69;;;-8.83;54.01
44027;BME280;29696;55.698;37.460;2022-12-07T03:53:34;100610.28;;;-8.87;54.21
44027;BME280;29696;55.698;37.460;2022-12-07T03:55:56;100617.97;;;-8.87;54.35
44027;BME280;29696;55.698;37.460;2022-12-07T03:58:23;100624.78;;;-8.89;54.20
44027;BME280;29696;55.698;37.460;2022-12-07T04:00:50;100605.13;;;-8.90;54.53
44027;BME280;29696;55.698;37.460;2022-12-07T04:03:16;100606.00;;;-8.91;54.53
44027;BME280;29696;55.698;37.460;2022-12-07T04:05:42;100609.38;;;-8.92;54.42
44027;BME280;29696;55.698;37.460;2022-12-07T04:08:09;100595.72;;;-8.94;54.57
44027;BME280;29696;55.698;37.460;2022-12-07T04:10:35;100604.25;;;-8.92;54.56
44027;BME280;29696;55.698;37.460;2022-12-07T04:13:01;100607.69;;;-8.91;54.69
44027;BME280;29696;55.698;37.460;2022-12-07T04:15:27;100606.81;;;-8.92;54.81
44027;BME280;29696;55.698;37.460;2022-12-07T04:17:53;100607.69;;;-8.90;55.02
44027;BME280;29696;55.698;37.460;2022-12-07T04:20:20;100599.16;;;-8.89;54.94
44027;BME280;29696;55.698;37.460;2022-12-07T04:22:46;100611.13;;;-8.86;55.03
44027;BME280;29696;55.698;37.460;2022-12-07T04:25:12;100607.75;;;-8.85;55.07
44027;BME280;29696;55.698;37.460;2022-12-07T04:27:39;100604.34;;;-8.84;55.13
44027;BME280;29696;55.698;37.460;2022-12-07T04:30:06;100595.78;;;-8.85;55.04
44027;BME280;29696;55.698;37.460;2022-12-07T04:32:32;100607.78;;;-8.82;55.36
44027;BME280;29696;55.698;37.460;2022-12-07T04:34:58;100602.63;;;-8.84;55.31
44027;BME280;29696;55.698;37.460;2022-12-07T04:37:24;100593.22;;;-8.85;55.46
44027;BME280;29696;55.698;37.460;2022-12-07T04:39:50;100588.94;;;-8.86;55.55
44027;BME280;29696;55.698;37.460;2022-12-07T04:42:16;100594.03;;;-8.89;56.11
44027;BME280;29696;55.698;37.460;2022-12-07T04:44:42;100587.22;;;-8.90;56.50
44027;BME280;29696;55.698;37.460;2022-12-07T04:47:08;100590.63;;;-8.91;56.67
44027;BME280;29696;55.698;37.460;2022-12-07T04:49:34;100599.16;;;-8.90;56.74
44027;BME280;29696;55.698;37.460;2022-12-07T04:52:01;100590.63;;;-8.89;56.81
44027;BME280;29696;55.698;37.460;2022-12-07T04:54:27;100590.63;;;-8.91;56.96
44027;BME280;29696;55.698;37.460;2022-12-07T04:56:53;100594.88;;;-8.88;57.04
44027;BME280;29696;55.698;37.460;2022-12-07T04:59:19;100605.13;;;-8.88;57.11
44027;BME280;29696;55.698;37.460;2022-12-07T05:01:45;100599.19;;;-8.86;56.97
44027;BME280;29696;55.698;37.460;2022-12-07T05:04:11;100594.06;;;-8.87;57.21
44027;BME280;29696;55.698;37.460;2022-12-07T05:06:37;100600.91;;;-8.88;57.22
44027;BME280;29696;55.698;37.460;2022-12-07T05:09:03;100594.03;;;-8.89;57.55
44027;BME280;29696;55.698;37.460;2022-12-07T05:11:29;100595.78;;;-8.88;57.45
44027;BME280;29696;55.698;37.460;2022-12-07T05:14:15;100599.19;;;-8.87;57.66
44027;BME280;29696;55.698;37.460;2022-12-07T05:16:41;100602.59;;;-8.87;57.64
44027;BME280;29696;55.698;37.460;2022-12-07T05:19:08;100605.16;;;-8.87;57.91
44027;BME280;29696;55.698;37.460;2022-12-07T05:21:35;100608.59;;;-8.83;57.81
44027;BME280;29696;55.698;37.460;2022-12-07T05:24:01;100606.03;;;-8.83;58.15
44027;BME280;29696;55.698;37.460;2022-12-07T05:26:28;100598.34;;;-8.83;58.09
44027;BME280;29696;55.698;37.460;2022-12-07T05:28:54;100604.34;;;-8.81;58.09
44027;BME280;29696;55.698;37.460;2022-12-07T05:31:21;100606.88;;;-8.83;58.09
44027;BME280;29696;55.698;37.460;2022-12-07T05:33:47;100595.78;;;-8.85;58.30
44027;BME280;29696;55.698;37.460;2022-12-07T05:36:13;100600.91;;;-8.85;58.72
44027;BME280;29696;55.698;37.460;2022-12-07T05:38:40;100599.19;;;-8.86;58.97
44027;BME280;29696;55.698;37.460;2022-12-07T05:41:06;100600.03;;;-8.87;58.87
44027;BME280;29696;55.698;37.460;2022-12-07T05:43:33;100600.91;;;-8.86;59.05
44027;BME280;29696;55.698;37.460;2022-12-07T05:45:59;100594.94;;;-8.84;59.03
44027;BME280;29696;55.698;37.460;2022-12-07T05:48:25;100602.63;;;-8.84;59.25
44027;BME280;29696;55.698;37.460;2022-12-07T05:50:52;100591.53;;;-8.83;59.59
44027;BME280;29696;55.698;37.460;2022-12-07T05:53:18;100596.66;;;-8.81;59.26
44027;BME280;29696;55.698;37.460;2022-12-07T05:55:44;100594.13;;;-8.78;59.39
44027;BME280;29696;55.698;37.460;2022-12-07T05:58:10;100598.38;;;-8.80;59.89
44027;BME280;29696;55.698;37.460;2022-12-07T06:00:55;100591.53;;;-8.80;59.87
44027;BME280;29696;55.698;37.460;2022-12-07T06:03:21;100589.84;;;-8.79;60.06
44027;BME280;29696;55.698;37.460;2022-12-07T06:05:47;100594.97;;;-8.79;60.01
44027;BME280;29696;55.698;37.460;2022-12-07T06:08:14;100587.28;;;-8.81;60.24
44027;BME280;29696;55.698;37.460;2022-12-07T06:10:41;100588.97;;;-8.80;60.23
44027;BME280;29696;55.698;37.460;2022-12-07T06:13:08;100592.41;;;-8.81;60.31
44027;BME280;29696;55.698;37.460;2022-12-07T06:15:37;100595.84;;;-8.79;60.47
44027;BME280;29696;55.698;37.460;2022-12-07T06:18:03;100596.69;;;-8.77;60.39
44027;BME280;29696;55.698;37.460;2022-12-07T06:20:29;100597.56;;;-8.76;60.50
44027;BME280;29696;55.698;37.460;2022-12-07T06:22:55;100601.81;;;-8.74;60.97
44027;BME280;29696;55.698;37.460;2022-12-07T06:25:21;100602.72;;;-8.73;61.23
44027;BME280;29696;55.698;37.460;2022-12-07T06:27:47;100591.59;;;-8.70;60.74
44027;BME280;29696;55.698;37.460;2022-12-07T06:30:13;100596.75;;;-8.69;61.03
44027;BME280;29696;55.698;37.460;2022-12-07T06:32:39;100598.47;;;-8.66;60.90
44027;BME280;29696;55.698;37.460;2022-12-07T06:35:05;100593.31;;;-8.71;61.44
44027;BME280;29696;55.698;37.460;2022-12-07T06:37:31;100596.72;;;-8.72;61.63
44027;BME280;29696;55.698;37.460;2022-12-07T06:39:57;100595.00;;;-8.71;61.57
44027;BME280;29696;55.698;37.460;2022-12-07T06:42:23;100596.69;;;-8.74;61.68
44027;BME280;29696;55.698;37.460;2022-12-07T06:44:49;100598.44;;;-8.71;61.94
44027;BME280;29696;55.698;37.460;2022-12-07T06:47:15;100589.91;;;-8.68;62.19
44027;BME280;29696;55.698;37.460;2022-12-07T06:49:41;100595.88;;;-8.68;62.09
44027;BME280;29696;55.698;37.460;2022-12-07T06:52:08;100592.50;;;-8.65;62.07
44027;BME280;29696;55.698;37.460;2022-12-07T06:54:34;100594.22;;;-8.60;62.11
44027;BME280;29696;55.698;37.460;2022-12-07T06:57:00;100590.84;;;-8.56;62.22
44027;BME280;29696;55.698;37.460;2022-12-07T06:59:26;100594.28;;;-8.52;62.23
44027;BME280;29696;55.698;37.460;2022-12-07T07:01:52;100590.00;;;-8.50;62.10
44027;BME280;29696;55.698;37.460;2022-12-07T07:04:18;100596.00;;;-8.48;62.16
44027;BME280;29696;55.698;37.460;2022-12-07T07:06:44;100591.75;;;-8.49;61.97
44027;BME280;29696;55.698;37.460;2022-12-07T07:09:10;100596.88;;;-8.49;62.15
44027;BME280;29696;55.698;37.460;2022-12-07T07:11:36;100595.97;;;-8.53;62.13
44027;BME280;29696;55.698;37.460;2022-12-07T07:14:02;100591.69;;;-8.58;62.20
44027;BME280;29696;55.698;37.460;2022-12-07T07:16:29;100589.97;;;-8.58;62.17
44027;BME280;29696;55.698;37.460;2022-12-07T07:18:56;100595.13;;;-8.58;62.01
44027;BME280;29696;55.698;37.460;2022-12-07T07:21:22;100593.41;;;-8.57;62.09
44027;BME280;29696;55.698;37.460;2022-12-07T07:23:48;100573.75;;;-8.58;62.09
44027;BME280;29696;55.698;37.460;2022-12-07T07:26:14;100589.13;;;-8.57;61.94
44027;BME280;29696;55.698;37.460;2022-12-07T07:28:40;100592.53;;;-8.58;61.88
44027;BME280;29696;55.698;37.460;2022-12-07T07:31:06;100584.00;;;-8.57;61.81
44027;BME280;29696;55.698;37.460;2022-12-07T07:33:32;100578.03;;;-8.57;61.66
44027;BME280;29696;55.698;37.460;2022-12-07T07:35:58;100581.47;;;-8.55;61.69
44027;BME280;29696;55.698;37.460;2022-12-07T07:38:24;100584.00;;;-8.57;61.87
44027;BME280;29696;55.698;37.460;2022-12-07T07:40:51;100576.31;;;-8.54;61.75
44027;BME280;29696;55.698;37.460;2022-12-07T07:43:17;100569.50;;;-8.53;61.73
44027;BME280;29696;55.698;37.460;2022-12-07T07:45:43;100569.53;;;-8.48;61.58
44027;BME280;29696;55.698;37.460;2022-12-07T07:48:10;100575.56;;;-8.31;61.54
44027;BME280;29696;55.698;37.460;2022-12-07T07:50:36;100566.34;;;-7.65;63.65
44027;BME280;29696;55.698;37.460;2022-12-07T07:53:02;100586.91;;;-7.09;61.89
44027;BME280;29696;55.698;37.460;2022-12-07T07:55:28;100559.47;;;-6.74;58.70
44027;BME280;29696;55.698;37.460;2022-12-07T07:57:54;100563.69;;;-6.50;57.56
44027;BME280;29696;55.698;37.460;2022-12-07T08:00:20;100549.91;;;-6.32;56.50
44027;BME280;29696;55.698;37.460;2022-12-07T08:02:47;100561.94;;;-6.35;54.96
44027;BME280;29696;55.698;37.460;2022-12-07T08:05:13;100567.97;;;-6.46;54.58
44027;BME280;29696;55.698;37.460;2022-12-07T08:07:39;100557.72;;;-6.59;54.80
44027;BME280;29696;55.698;37.460;2022-12-07T08:10:06;100556.91;;;-6.72;55.09
44027;BME280;29696;55.698;37.460;2022-12-07T08:12:35;100557.78;;;-6.89;55.42
44027;BME280;29696;55.698;37.460;2022-12-07T08:15:01;100564.66;;;-6.97;55.61
44027;BME280;29696;55.698;37.460;2022-12-07T08:17:28;100558.66;;;-7.05;55.64
44027;BME280;29696;55.698;37.460;2022-12-07T08:19:54;100569.81;;;-7.10;56.15
44027;BME280;29696;55.698;37.460;2022-12-07T08:22:20;100563.81;;;-7.25;55.87
44027;BME280;29696;55.698;37.460;2022-12-07T08:24:46;100565.53;;;-7.38;56.53
44027;BME280;29696;55.698;37.460;2022-12-07T08:27:12;100559.53;;;-7.47;57.05
44027;BME280;29696;55.698;37.460;2022-12-07T08:29:39;100559.53;;;-7.50;57.45
44027;BME280;29696;55.698;37.460;2022-12-07T08:32:05;100561.22;;;-7.62;57.22
44027;BME280;29696;55.698;37.460;2022-12-07T08:34:31;100559.47;;;-7.69;57.43
44027;BME280;29696;55.698;37.460;2022-12-07T08:36:57;100554.34;;;-7.76;57.59
44027;BME280;29696;55.698;37.460;2022-12-07T08:39:23;100552.66;;;-7.81;57.81
44027;BME280;29696;55.698;37.460;2022-12-07T08:41:49;100549.19;;;-7.87;57.80
44027;BME280;29696;55.698;37.460;2022-12-07T08:44:15;100544.06;;;-7.87;58.08
44027;BME280;29696;55.698;37.460;2022-12-07T08:46:48;100547.50;;;-7.84;58.55
44027;BME280;29696;55.698;37.460;2022-12-07T08:49:17;100547.50;;;-7.82;58.09
44027;BME280;29696;55.698;37.460;2022-12-07T08:51:44;100539.81;;;-7.82;57.81
44027;BME280;29696;55.698;37.460;2022-12-07T08:54:11;100547.50;;;-7.85;57.92
44027;BME280;29696;55.698;37.460;2022-12-07T08:56:37;100535.53;;;-7.89;57.64
44027;BME280;29696;55.698;37.460;2022-12-07T08:59:04;100534.63;;;-7.90;57.85
44027;BME280;29696;55.698;37.460;2022-12-07T09:01:31;100538.09;;;-7.89;58.00
44027;BME280;29696;55.698;37.460;2022-12-07T09:03:57;100530.38;;;-7.89;57.68
44027;BME280;29696;55.698;37.460;2022-12-07T09:06:23;100521.81;;;-7.88;58.16
44027;BME280;29696;55.698;37.460;2022-12-07T09:08:50;100529.53;;;-7.85;57.89
44027;BME280;29696;55.698;37.460;2022-12-07T09:11:16;100532.97;;;-7.83;57.84
44027;BME280;29696;55.698;37.460;2022-12-07T09:13:43;100530.41;;;-7.86;57.40
44027;BME280;29696;55.698;37.460;2022-12-07T09:16:08;100527.81;;;-7.85;57.37
44027;BME280;29696;55.698;37.460;2022-12-07T09:18:34;100518.41;;;-7.83;57.24
44027;BME280;29696;55.698;37.460;2022-12-07T09:21:00;100517.56;;;-7.82;57.50
44027;BME280;29696;55.698;37.460;2022-12-07T09:23:26;100519.28;;;-7.82;57.19
44027;BME280;29696;55.698;37.460;2022-12-07T09:25:52;100516.72;;;-7.81;57.04
44027;BME280;29696;55.698;37.460;2022-12-07T09:28:18;100515.00;;;-7.80;57.18
44027;BME280;29696;55.698;37.460;2022-12-07T09:30:45;100511.59;;;-7.77;57.17
44027;BME280;29696;55.698;37.460;2022-12-07T09:33:12;100515.88;;;-7.73;57.33
44027;BME280;29696;55.698;37.460;2022-12-07T09:35:43;100502.16;;;-7.69;57.19
44027;BME280;29696;55.698;37.460;2022-12-07T09:38:09;100495.34;;;-7.64;57.21
44027;BME280;29696;55.698;37.460;2022-12-07T09:40:35;100496.19;;;-7.58;57.20
44027;BME280;29696;55.698;37.460;2022-12-07T09:43:01;100491.91;;;-7.55;56.35
44027;BME280;29696;55.698;37.460;2022-12-07T09:48:21;100493.63;;;-7.50;56.30
44027;BME280;29696;55.698;37.460;2022-12-07T09:50:48;100491.06;;;-7.47;55.76
44027;BME280;29696;55.698;37.460;2022-12-07T09:53:19;100497.06;;;-7.43;55.63
44027;BME280;29696;55.698;37.460;2022-12-07T09:55:47;100490.22;;;-7.44;55.48
44027;BME280;29696;55.698;37.460;2022-12-07T09:58:20;100474.81;;;-7.44;55.58
44027;BME280;29696;55.698;37.460;2022-12-07T10:00:46;100485.06;;;-7.43;55.54
44027;BME280;29696;55.698;37.460;2022-12-07T10:03:12;100480.78;;;-7.42;55.42
44027;BME280;29696;55.698;37.460;2022-12-07T10:05:40;100479.09;;;-7.45;55.18
44027;BME280;29696;55.698;37.460;2022-12-07T10:08:09;100488.47;;;-7.48;54.88
44027;BME280;29696;55.698;37.460;2022-12-07T10:10:36;100477.38;;;-7.52;55.04
44027;BME280;29696;55.698;37.460;2022-12-07T10:13:06;100494.50;;;-7.52;55.24
44027;BME280;29696;55.698;37.460;2022-12-07T10:21:15;100471.38;;;-7.54;55.24
44027;BME280;29696;55.698;37.460;2022-12-07T10:26:51;100468.81;;;-7.46;55.54
44027;BME280;29696;55.698;37.460;2022-12-07T10:29:22;100471.41;;;-7.45;55.17
44027;BME280;29696;55.698;37.460;2022-12-07T10:31:59;100473.97;;;-7.45;55.01
44027;BME280;29696;55.698;37.460;2022-12-07T10:34:27;100479.06;;;-7.40;54.96
44027;BME280;29696;55.698;37.460;2022-12-07T10:37:07;100469.66;;;-7.40;54.90
44027;BME280;29696;55.698;37.460;2022-12-07T10:39:49;100471.38;;;-7.42;54.81
44027;BME280;29696;55.698;37.460;2022-12-07T10:45:17;100460.25;;;-7.45;54.92
44027;BME280;29696;55.698;37.460;2022-12-07T11:01:50;100441.44;;;-7.47;55.14
44027;BME280;29696;55.698;37.460;2022-12-07T11:04:41;100454.25;;;-7.49;54.76
44027;BME280;29696;55.698;37.460;2022-12-07T11:10:02;100431.16;;;-7.46;55.04
44027;BME280;29696;55.698;37.460;2022-12-07T11:13:14;100432.03;;;-7.50;55.05
44027;BME280;29696;55.698;37.460;2022-12-07T11:15:28;100433.72;;;-7.49;55.16
44027;BME280;29696;55.698;37.460;2022-12-07T11:21:31;100434.56;;;-7.39;55.22
44027;BME280;29696;55.698;37.460;2022-12-07T11:26:26;100425.16;;;-7.43;54.97
44027;BME280;29696;55.698;37.460;2022-12-07T11:34:41;100424.31;;;-7.61;55.61
44027;BME280;29696;55.698;37.460;2022-12-07T11:37:13;100420.94;;;-7.63;56.01
44027;BME280;29696;55.698;37.460;2022-12-07T11:39:52;100415.78;;;-7.70;55.91
44027;BME280;29696;55.698;37.460;2022-12-07T11:42:24;100419.19;;;-7.73;55.98
44027;BME280;29696;55.698;37.460;2022-12-07T11:47:59;100397.84;;;-7.83;56.54
44027;BME280;29696;55.698;37.460;2022-12-07T11:50:45;100397.84;;;-7.86;56.58
44027;BME280;29696;55.698;37.460;2022-12-07T12:07:12;100391.00;;;-8.04;57.22
44027;BME280;29696;55.698;37.460;2022-12-07T12:09:47;100388.41;;;-8.08;57.43
44027;BME280;29696;55.698;37.460;2022-12-07T12:24:28;100385.84;;;-8.39;58.52
44027;BME280;29696;55.698;37.460;2022-12-07T12:27:37;100377.28;;;-8.41;58.79
44027;BME280;29696;55.698;37.460;2022-12-07T12:29:44;100417.44;;;-8.47;59.24
44027;BME280;29696;55.698;37.460;2022-12-07T12:32:17;100370.47;;;-8.51;59.49
44027;BME280;29696;55.698;37.460;2022-12-07T12:43:39;100380.69;;;-8.66;60.05
44027;BME280;29696;55.698;37.460;2022-12-07T12:46:36;100370.41;;;-8.69;60.22
44027;BME280;29696;55.698;37.460;2022-12-07T12:48:39;100383.22;;;-8.73;60.42
44027;BME280;29696;55.698;37.460;2022-12-07T12:51:48;100398.59;;;-8.76;60.64
44027;BME280;29696;55.698;37.460;2022-12-07T12:54:03;100377.22;;;-8.81;60.61
44027;BME280;29696;55.698;37.460;2022-12-07T12:56:40;100380.63;;;-8.85;61.14
44027;BME280;29696;55.698;37.460;2022-12-07T13:02:09;100378.03;;;-8.94;61.66
44027;BME280;29696;55.698;37.460;2022-12-07T13:10:33;100366.03;;;-9.01;61.84
44027;BME280;29696;55.698;37.460;2022-12-07T13:13:02;100376.28;;;-9.04;62.20
44027;BME280;29696;55.698;37.460;2022-12-07T13:23:59;100355.75;;;-9.21;63.39
44027;BME280;29696;55.698;37.460;2022-12-07T13:29:16;100370.19;;;-9.25;63.62
44027;BME280;29696;55.698;37.460;2022-12-07T13:31:44;100360.81;;;-9.26;63.60
44027;BME280;29696;55.698;37.460;2022-12-07T13:36:55;100356.56;;;-9.30;64.11
44027;BME280;29696;55.698;37.460;2022-12-07T13:39:25;100364.22;;;-9.31;64.12
44027;BME280;29696;55.698;37.460;2022-12-07T13:41:55;100339.47;;;-9.31;64.12
44027;BME280;29696;55.698;37.460;2022-12-07T13:44:27;100348.84;;;-9.33;64.15
44027;BME280;29696;55.698;37.460;2022-12-07T13:49:49;100353.09;;;-9.36;64.50
44027;BME280;29696;55.698;37.460;2022-12-07T13:57:52;100340.31;;;-9.35;64.19
44027;BME280;29696;55.698;37.460;2022-12-07T14:00:19;100345.41;;;-9.41;64.49
44027;BME280;29696;55.698;37.460;2022-12-07T14:05:41;100341.13;;;-9.44;64.77
44027;BME280;29696;55.698;37.460;2022-12-07T14:10:57;100324.91;;;-9.47;64.76
44027;BME280;29696;55.698;37.460;2022-12-07T14:19:05;100343.63;;;-9.56;65.10
44027;BME280;29696;55.698;37.460;2022-12-07T14:21:34;100328.25;;;-9.56;64.97
44027;BME280;29696;55.698;37.460;2022-12-07T14:26:58;100318.03;;;-9.56;64.89
44027;BME280;29696;55.698;37.460;2022-12-07T14:32:21;100329.97;;;-9.55;65.13
44027;BME280;29696;55.698;37.460;2022-12-07T14:34:56;100335.94;;;-9.56;65.22
44027;BME280;29696;55.698;37.460;2022-12-07T14:37:23;100332.53;;;-9.55;65.22
44027;BME280;29696;55.698;37.460;2022-12-07T14:39:49;100330.81;;;-9.54;65.11
44027;BME280;29696;55.698;37.460;2022-12-07T14:42:15;100331.69;;;-9.52;65.09
44027;BME280;29696;55.698;37.460;2022-12-07T14:44:42;100325.72;;;-9.51;64.80
44027;BME280;29696;55.698;37.460;2022-12-07T14:47:11;100334.28;;;-9.48;64.70
44027;BME280;29696;55.698;37.460;2022-12-07T14:49:38;100324.88;;;-9.50;65.12
44027;BME280;29696;55.698;37.460;2022-12-07T14:52:04;100323.16;;;-9.48;64.76
44027;BME280;29696;55.698;37.460;2022-12-07T14:54:31;100314.66;;;-9.50;64.92
44027;BME280;29696;55.698;37.460;2022-12-07T14:56:57;100333.38;;;-9.51;65.17
44027;BME280;29696;55.698;37.460;2022-12-07T14:59:23;100335.94;;;-9.54;65.29
44027;BME280;29696;55.698;37.460;2022-12-07T15:01:49;100324.88;;;-9.53;65.38
44027;BME280;29696;55.698;37.460;2022-12-07T15:04:16;100321.44;;;-9.52;65.19
44027;BME280;29696;55.698;37.460;2022-12-07T15:06:42;100324.00;;;-9.52;65.29
44027;BME280;29696;55.698;37.460;2022-12-07T15:09:12;100314.63;;;-9.52;65.50
44027;BME280;29696;55.698;37.460;2022-12-07T15:11:38;100315.50;;;-9.50;65.33
44027;BME280;29696;55.698;37.460;2022-12-07T15:14:04;100324.88;;;-9.50;65.45
44027;BME280;29696;55.698;37.460;2022-12-07T15:16:40;100325.72;;;-9.50;65.27
44027;BME280;29696;55.698;37.460;2022-12-07T15:19:10;100319.78;;;-9.47;65.42
44027;BME280;29696;55.698;37.460;2022-12-07T15:21:37;100306.97;;;-9.49;65.45